sensor_id;sensor_type;location;lat;lon;timestamp;temperature;humidity
16064;DHT22;8136;53.172;8.256;2023-03-30T00:25:59;11.20;99.90
16064;DHT22;8136;53.172;8.256;2023-03-30T05:50:03;12.90;99.90
16064;DHT22;8136;53.172;8.256;2023-03-30T05:52:30;12.90;99.90
16064;DHT22;8136;53.172;8.256;2023-03-30T05:55:01;12.90;99.90
16064;DHT22;8136;53.172;8.256;2023-03-30T05:57:38;12.90;99.90
16064;DHT22;8136;53.172;8.256;2023-03-30T06:00:09;13.00;99.90
16064;DHT22;8136;53.172;8.256;2023-03-30T06:02:42;13.00;99.90
16064;DHT22;8136;53.172;8.256;2023-03-30T06:05:10;13.00;99.90
16064;DHT22;8136;53.172;8.256;2023-03-30T06:07:37;13.00;99.90
16064;DHT22;8136;53.172;8.256;2023-03-30T06:10:05;13.00;99.90
16064;DHT22;8136;53.172;8.256;2023-03-30T06:12:35;13.00;99.90
16064;DHT22;8136;53.172;8.256;2023-03-30T06:15:07;13.00;99.90
16064;DHT22;8136;53.172;8.256;2023-03-30T06:17:35;13.00;99.90
16064;DHT22;8136;53.172;8.256;2023-03-30T06:20:02;13.00;99.90
16064;DHT22;8136;53.172;8.256;2023-03-30T07:06:30;13.40;99.90
16064;DHT22;8136;53.172;8.256;2023-03-30T07:09:02;13.40;99.90
16064;DHT22;8136;53.172;8.256;2023-03-30T07:11:30;13.40;99.90
16064;DHT22;8136;53.172;8.256;2023-03-30T07:13:59;13.50;99.90
16064;DHT22;8136;53.172;8.256;2023-03-30T07:16:30;13.50;99.90
16064;DHT22;8136;53.172;8.256;2023-03-30T07:18:58;13.50;99.90
16064;DHT22;8136;53.172;8.256;2023-03-30T07:25:16;13.60;99.90
16064;DHT22;8136;53.172;8.256;2023-03-30T07:27:43;13.60;99.90
16064;DHT22;8136;53.172;8.256;2023-03-30T07:30:22;13.70;99.90
16064;DHT22;8136;53.172;8.256;2023-03-30T07:33:07;13.80;99.90
16064;DHT22;8136;53.172;8.256;2023-03-30T07:35:44;13.80;99.90
16064;DHT22;8136;53.172;8.256;2023-03-30T07:38:15;13.90;99.90
16064;DHT22;8136;53.172;8.256;2023-03-30T07:40:45;14.00;99.90
16064;DHT22;8136;53.172;8.256;2023-03-30T07:43:14;14.10;99.90
16064;DHT22;8136;53.172;8.256;2023-03-30T07:45:44;14.20;99.90
16064;DHT22;8136;53.172;8.256;2023-03-30T07:48:11;14.20;99.90
16064;DHT22;8136;53.172;8.256;2023-03-30T07:50:38;14.20;99.90
16064;DHT22;8136;53.172;8.256;2023-03-30T07:53:05;14.20;99.90
16064;DHT22;8136;53.172;8.256;2023-03-30T07:55:33;14.20;99.90
16064;DHT22;8136;53.172;8.256;2023-03-30T07:58:00;14.10;99.90
16064;DHT22;8136;53.172;8.256;2023-03-30T08:34:10;14.10;99.90
16064;DHT22;8136;53.172;8.256;2023-03-30T08:36:38;14.10;99.90
16064;DHT22;8136;53.172;8.256;2023-03-30T08:39:21;14.10;99.90
16064;DHT22;8136;53.172;8.256;2023-03-30T08:41:58;14.20;99.90
16064;DHT22;8136;53.172;8.256;2023-03-30T08:44:32;14.30;99.90
16064;DHT22;8136;53.172;8.256;2023-03-30T08:47:23;14.40;99.90
16064;DHT22;8136;53.172;8.256;2023-03-30T09:14:26;14.70;99.90
16064;DHT22;8136;53.172;8.256;2023-03-30T09:20:51;14.30;99.90
16064;DHT22;8136;53.172;8.256;2023-03-30T09:23:18;13.90;99.90
16064;DHT22;8136;53.172;8.256;2023-03-30T09:25:58;13.80;99.90
16064;DHT22;8136;53.172;8.256;2023-03-30T09:28:33;13.80;99.90
16064;DHT22;8136;53.172;8.256;2023-03-30T09:31:10;13.80;99.90
16064;DHT22;8136;53.172;8.256;2023-03-30T09:33:43;13.90;99.90
16064;DHT22;8136;53.172;8.256;2023-03-30T09:36:14;14.00;99.90
16064;DHT22;8136;53.172;8.256;2023-03-30T09:38:44;14.10;99.90
16064;DHT22;8136;53.172;8.256;2023-03-30T09:41:39;14.10;99.90
16064;DHT22;8136;53.172;8.256;2023-03-30T09:44:30;14.20;99.90
16064;DHT22;8136;53.172;8.256;2023-03-30T09:47:01;14.20;99.90
16064;DHT22;8136;53.172;8.256;2023-03-30T09:49:38;14.20;99.90
16064;DHT22;8136;53.172;8.256;2023-03-30T09:52:13;14.20;99.90
16064;DHT22;8136;53.172;8.256;2023-03-30T09:54:47;14.20;99.90
16064;DHT22;8136;53.172;8.256;2023-03-30T09:57:27;14.20;99.90
16064;DHT22;8136;53.172;8.256;2023-03-30T10:00:02;14.20;99.90
16064;DHT22;8136;53.172;8.256;2023-03-30T10:03:00;14.20;99.90
16064;DHT22;8136;53.172;8.256;2023-03-30T10:06:00;14.20;99.90
16064;DHT22;8136;53.172;8.256;2023-03-30T10:08:52;14.40;99.90
16064;DHT22;8136;53.172;8.256;2023-03-30T10:11:21;14.60;99.90
16064;DHT22;8136;53.172;8.256;2023-03-30T10:13:56;14.70;99.90
16064;DHT22;8136;53.172;8.256;2023-03-30T10:16:34;14.80;99.90
16064;DHT22;8136;53.172;8.256;2023-03-30T10:19:15;14.90;99.90
16064;DHT22;8136;53.172;8.256;2023-03-30T10:21:45;14.80;99.90
16064;DHT22;8136;53.172;8.256;2023-03-30T10:24:20;14.60;99.90
16064;DHT22;8136;53.172;8.256;2023-03-30T10:26:50;14.20;99.90
16064;DHT22;8136;53.172;8.256;2023-03-30T10:29:21;13.50;99.90
16064;DHT22;8136;53.172;8.256;2023-03-30T10:31:53;12.90;99.90
16064;DHT22;8136;53.172;8.256;2023-03-30T10:34:32;12.50;99.90
16064;DHT22;8136;53.172;8.256;2023-03-30T10:37:13;12.30;99.90
16064;DHT22;8136;53.172;8.256;2023-03-30T10:39:43;12.30;99.90
16064;DHT22;8136;53.172;8.256;2023-03-30T10:42:15;12.40;99.90
16064;DHT22;8136;53.172;8.256;2023-03-30T10:45:02;12.60;99.90
16064;DHT22;8136;53.172;8.256;2023-03-30T10:55:17;13.30;99.90
16064;DHT22;8136;53.172;8.256;2023-03-30T10:58:01;13.60;99.90
16064;DHT22;8136;53.172;8.256;2023-03-30T11:03:30;14.10;99.90
16064;DHT22;8136;53.172;8.256;2023-03-30T11:52:24;14.30;99.90
16064;DHT22;8136;53.172;8.256;2023-03-30T12:55:15;14.80;99.90
16064;DHT22;8136;53.172;8.256;2023-03-30T12:57:55;14.80;99.90
16064;DHT22;8136;53.172;8.256;2023-03-30T13:01:09;14.90;99.90
16064;DHT22;8136;53.172;8.256;2023-03-30T13:03:41;15.00;99.90
16064;DHT22;8136;53.172;8.256;2023-03-30T13:06:21;15.00;99.90
16064;DHT22;8136;53.172;8.256;2023-03-30T13:08:54;15.00;99.90
16064;DHT22;8136;53.172;8.256;2023-03-30T13:11:22;14.90;99.90
16064;DHT22;8136;53.172;8.256;2023-03-30T13:13:54;14.90;99.90
16064;DHT22;8136;53.172;8.256;2023-03-30T13:16:47;14.90;99.90
16064;DHT22;8136;53.172;8.256;2023-03-30T13:19:41;14.90;99.90
16064;DHT22;8136;53.172;8.256;2023-03-30T13:22:26;15.30;99.90
16064;DHT22;8136;53.172;8.256;2023-03-30T13:24:54;15.20;99.90
16064;DHT22;8136;53.172;8.256;2023-03-30T13:27:28;15.20;99.90
16064;DHT22;8136;53.172;8.256;2023-03-30T13:29:57;15.00;99.90
16064;DHT22;8136;53.172;8.256;2023-03-30T13:32:47;15.30;99.90
16064;DHT22;8136;53.172;8.256;2023-03-30T13:35:29;15.70;99.90
16064;DHT22;8136;53.172;8.256;2023-03-30T13:41:07;16.60;99.90
16064;DHT22;8136;53.172;8.256;2023-03-30T13:43:46;16.50;99.90
16064;DHT22;8136;53.172;8.256;2023-03-30T13:46:20;16.10;99.90
16064;DHT22;8136;53.172;8.256;2023-03-30T13:49:10;15.80;99.90
16064;DHT22;8136;53.172;8.256;2023-03-30T13:51:41;16.40;99.90
16064;DHT22;8136;53.172;8.256;2023-03-30T13:54:12;17.50;99.90
16064;DHT22;8136;53.172;8.256;2023-03-30T13:56:44;17.40;99.90
16064;DHT22;8136;53.172;8.256;2023-03-30T13:59:16;16.80;99.90
16064;DHT22;8136;53.172;8.256;2023-03-30T14:01:46;16.80;99.90
16064;DHT22;8136;53.172;8.256;2023-03-30T14:04:15;17.10;99.90
16064;DHT22;8136;53.172;8.256;2023-03-30T14:06:44;17.50;99.90
16064;DHT22;8136;53.172;8.256;2023-03-30T14:09:13;16.90;99.90
16064;DHT22;8136;53.172;8.256;2023-03-30T14:11:43;16.30;99.90
16064;DHT22;8136;53.172;8.256;2023-03-30T14:14:16;16.40;99.90
16064;DHT22;8136;53.172;8.256;2023-03-30T14:16:46;17.40;99.90
16064;DHT22;8136;53.172;8.256;2023-03-30T14:19:20;18.20;99.90
16064;DHT22;8136;53.172;8.256;2023-03-30T14:21:52;18.60;99.90
16064;DHT22;8136;53.172;8.256;2023-03-30T14:24:26;18.80;99.90
16064;DHT22;8136;53.172;8.256;2023-03-30T14:27:00;19.40;99.90
16064;DHT22;8136;53.172;8.256;2023-03-30T14:29:28;19.80;99.90
16064;DHT22;8136;53.172;8.256;2023-03-30T14:31:59;19.10;99.90
16064;DHT22;8136;53.172;8.256;2023-03-30T14:34:27;18.50;99.90
16064;DHT22;8136;53.172;8.256;2023-03-30T14:36:58;17.50;99.90
16064;DHT22;8136;53.172;8.256;2023-03-30T14:39:25;17.10;99.90
16064;DHT22;8136;53.172;8.256;2023-03-30T14:41:53;16.60;99.90
16064;DHT22;8136;53.172;8.256;2023-03-30T14:44:22;16.20;99.90
16064;DHT22;8136;53.172;8.256;2023-03-30T14:46:51;16.20;99.90
16064;DHT22;8136;53.172;8.256;2023-03-30T14:49:21;16.30;99.90
16064;DHT22;8136;53.172;8.256;2023-03-30T14:51:49;16.20;99.90
16064;DHT22;8136;53.172;8.256;2023-03-30T14:54:20;16.00;99.90
16064;DHT22;8136;53.172;8.256;2023-03-30T14:56:51;15.80;99.90
16064;DHT22;8136;53.172;8.256;2023-03-30T14:59:21;15.70;99.90
16064;DHT22;8136;53.172;8.256;2023-03-30T15:01:52;15.50;99.90
16064;DHT22;8136;53.172;8.256;2023-03-30T15:04:22;15.50;99.90
16064;DHT22;8136;53.172;8.256;2023-03-30T15:06:50;15.40;99.90
16064;DHT22;8136;53.172;8.256;2023-03-30T15:09:19;15.40;99.90
16064;DHT22;8136;53.172;8.256;2023-03-30T15:11:48;15.50;99.90
16064;DHT22;8136;53.172;8.256;2023-03-30T15:14:19;15.80;99.90
16064;DHT22;8136;53.172;8.256;2023-03-30T15:16:48;16.70;99.90
16064;DHT22;8136;53.172;8.256;2023-03-30T15:19:25;17.40;99.90
16064;DHT22;8136;53.172;8.256;2023-03-30T15:21:55;17.50;99.90
16064;DHT22;8136;53.172;8.256;2023-03-30T15:24:25;17.10;99.90
16064;DHT22;8136;53.172;8.256;2023-03-30T15:26:55;17.10;99.90
16064;DHT22;8136;53.172;8.256;2023-03-30T15:29:23;16.60;99.90
16064;DHT22;8136;53.172;8.256;2023-03-30T15:31:58;16.10;99.90
16064;DHT22;8136;53.172;8.256;2023-03-30T15:34:26;15.90;99.90
16064;DHT22;8136;53.172;8.256;2023-03-30T15:36:53;15.70;99.90
16064;DHT22;8136;53.172;8.256;2023-03-30T15:39:22;15.50;99.90
16064;DHT22;8136;53.172;8.256;2023-03-30T15:41:58;15.40;99.90
16064;DHT22;8136;53.172;8.256;2023-03-30T15:44:26;15.30;99.90
16064;DHT22;8136;53.172;8.256;2023-03-30T15:46:54;15.30;99.90
16064;DHT22;8136;53.172;8.256;2023-03-30T15:49:24;15.30;99.90
16064;DHT22;8136;53.172;8.256;2023-03-30T15:51:57;15.20;99.90
16064;DHT22;8136;53.172;8.256;2023-03-30T15:54:31;15.10;99.90
16064;DHT22;8136;53.172;8.256;2023-03-30T15:57:01;15.00;99.90
16064;DHT22;8136;53.172;8.256;2023-03-30T15:59:31;14.90;99.90
16064;DHT22;8136;53.172;8.256;2023-03-30T16:02:01;14.90;99.90
16064;DHT22;8136;53.172;8.256;2023-03-30T16:04:30;14.90;99.90
16064;DHT22;8136;53.172;8.256;2023-03-30T16:06:59;14.90;99.90
16064;DHT22;8136;53.172;8.256;2023-03-30T16:09:26;14.90;99.90
16064;DHT22;8136;53.172;8.256;2023-03-30T16:11:53;14.80;99.90
16064;DHT22;8136;53.172;8.256;2023-03-30T16:14:20;14.70;99.90
16064;DHT22;8136;53.172;8.256;2023-03-30T16:16:47;14.70;99.90
16064;DHT22;8136;53.172;8.256;2023-03-30T16:19:15;14.70;99.90
16064;DHT22;8136;53.172;8.256;2023-03-30T16:21:43;14.70;99.90
16064;DHT22;8136;53.172;8.256;2023-03-30T16:24:12;14.70;99.90
16064;DHT22;8136;53.172;8.256;2023-03-30T16:26:39;14.70;99.90
16064;DHT22;8136;53.172;8.256;2023-03-30T16:29:11;14.60;99.90
16064;DHT22;8136;53.172;8.256;2023-03-30T16:31:40;14.60;99.90
16064;DHT22;8136;53.172;8.256;2023-03-30T16:34:07;14.60;99.90
16064;DHT22;8136;53.172;8.256;2023-03-30T16:36:33;14.60;99.90
16064;DHT22;8136;53.172;8.256;2023-03-30T16:39:00;14.60;99.90
16064;DHT22;8136;53.172;8.256;2023-03-30T16:41:31;14.50;99.90
16064;DHT22;8136;53.172;8.256;2023-03-30T16:43:58;14.50;99.90
16064;DHT22;8136;53.172;8.256;2023-03-30T16:46:24;14.40;99.90
16064;DHT22;8136;53.172;8.256;2023-03-30T16:48:51;14.40;99.90
16064;DHT22;8136;53.172;8.256;2023-03-30T16:51:18;14.40;99.90
16064;DHT22;8136;53.172;8.256;2023-03-30T16:53:45;14.40;99.90
16064;DHT22;8136;53.172;8.256;2023-03-30T16:56:15;14.40;99.90
16064;DHT22;8136;53.172;8.256;2023-03-30T16:58:43;14.40;99.90
16064;DHT22;8136;53.172;8.256;2023-03-30T17:01:11;14.40;99.90
16064;DHT22;8136;53.172;8.256;2023-03-30T17:03:40;14.30;99.90
16064;DHT22;8136;53.172;8.256;2023-03-30T17:06:07;14.30;99.90
16064;DHT22;8136;53.172;8.256;2023-03-30T17:08:34;14.30;99.90
16064;DHT22;8136;53.172;8.256;2023-03-30T17:11:01;14.30;99.90
16064;DHT22;8136;53.172;8.256;2023-03-30T17:13:29;14.20;99.90
16064;DHT22;8136;53.172;8.256;2023-03-30T17:15:59;14.20;99.90
16064;DHT22;8136;53.172;8.256;2023-03-30T17:18:28;14.10;99.90
16064;DHT22;8136;53.172;8.256;2023-03-30T17:20:55;14.10;99.90
16064;DHT22;8136;53.172;8.256;2023-03-30T17:23:23;14.00;99.90
16064;DHT22;8136;53.172;8.256;2023-03-30T17:25:52;14.00;99.90
16064;DHT22;8136;53.172;8.256;2023-03-30T17:28:20;14.00;99.90
16064;DHT22;8136;53.172;8.256;2023-03-30T17:30:49;14.00;99.90
16064;DHT22;8136;53.172;8.256;2023-03-30T17:33:18;14.00;99.90
16064;DHT22;8136;53.172;8.256;2023-03-30T17:35:47;14.00;99.90
16064;DHT22;8136;53.172;8.256;2023-03-30T17:38:15;14.00;99.90
16064;DHT22;8136;53.172;8.256;2023-03-30T17:40:42;14.00;99.90
16064;DHT22;8136;53.172;8.256;2023-03-30T17:43:10;14.00;99.90
16064;DHT22;8136;53.172;8.256;2023-03-30T17:45:37;13.90;99.90
16064;DHT22;8136;53.172;8.256;2023-03-30T17:48:06;13.90;99.90
16064;DHT22;8136;53.172;8.256;2023-03-30T17:50:39;13.80;99.90
16064;DHT22;8136;53.172;8.256;2023-03-30T17:53:08;13.90;99.90
16064;DHT22;8136;53.172;8.256;2023-03-30T17:55:36;13.90;99.90
16064;DHT22;8136;53.172;8.256;2023-03-30T17:58:04;13.80;99.90
16064;DHT22;8136;53.172;8.256;2023-03-30T18:00:32;13.80;99.90
16064;DHT22;8136;53.172;8.256;2023-03-30T18:02:59;13.80;99.90
16064;DHT22;8136;53.172;8.256;2023-03-30T18:05:28;13.80;99.90
16064;DHT22;8136;53.172;8.256;2023-03-30T18:07:57;13.80;99.90
16064;DHT22;8136;53.172;8.256;2023-03-30T18:10:26;13.80;99.90
16064;DHT22;8136;53.172;8.256;2023-03-30T18:12:53;13.80;99.90
16064;DHT22;8136;53.172;8.256;2023-03-30T18:15:22;13.80;99.90
16064;DHT22;8136;53.172;8.256;2023-03-30T18:17:52;13.80;99.90
16064;DHT22;8136;53.172;8.256;2023-03-30T18:20:22;13.70;99.90
16064;DHT22;8136;53.172;8.256;2023-03-30T18:22:50;13.70;99.90
16064;DHT22;8136;53.172;8.256;2023-03-30T18:25:19;13.70;99.90
16064;DHT22;8136;53.172;8.256;2023-03-30T18:27:46;13.70;99.90
16064;DHT22;8136;53.172;8.256;2023-03-30T18:30:19;13.60;99.90
16064;DHT22;8136;53.172;8.256;2023-03-30T18:32:46;13.60;99.90
16064;DHT22;8136;53.172;8.256;2023-03-30T18:35:13;13.60;99.90
16064;DHT22;8136;53.172;8.256;2023-03-30T18:37:40;13.60;99.90
16064;DHT22;8136;53.172;8.256;2023-03-30T18:40:14;13.60;99.90
16064;DHT22;8136;53.172;8.256;2023-03-30T18:42:42;13.50;99.90
16064;DHT22;8136;53.172;8.256;2023-03-30T18:45:15;13.50;99.90
16064;DHT22;8136;53.172;8.256;2023-03-30T18:47:42;13.50;99.90
16064;DHT22;8136;53.172;8.256;2023-03-30T18:50:13;13.50;99.90
16064;DHT22;8136;53.172;8.256;2023-03-30T18:52:39;13.30;99.90
16064;DHT22;8136;53.172;8.256;2023-03-30T18:55:06;13.40;99.90
16064;DHT22;8136;53.172;8.256;2023-03-30T18:57:33;13.40;99.90
16064;DHT22;8136;53.172;8.256;2023-03-30T19:00:02;13.40;99.90
16064;DHT22;8136;53.172;8.256;2023-03-30T19:02:33;13.30;99.90
16064;DHT22;8136;53.172;8.256;2023-03-30T19:04:59;13.30;99.90
16064;DHT22;8136;53.172;8.256;2023-03-30T19:07:26;13.20;99.90
16064;DHT22;8136;53.172;8.256;2023-03-30T19:09:53;13.10;99.90
16064;DHT22;8136;53.172;8.256;2023-03-30T19:12:20;13.10;99.90
16064;DHT22;8136;53.172;8.256;2023-03-30T19:14:46;13.00;99.90
16064;DHT22;8136;53.172;8.256;2023-03-30T19:17:14;12.90;99.90
16064;DHT22;8136;53.172;8.256;2023-03-30T19:19:41;12.90;99.90
16064;DHT22;8136;53.172;8.256;2023-03-30T19:22:08;12.90;99.90
16064;DHT22;8136;53.172;8.256;2023-03-30T19:24:36;12.80;99.90
16064;DHT22;8136;53.172;8.256;2023-03-30T19:27:03;12.80;99.90
16064;DHT22;8136;53.172;8.256;2023-03-30T19:29:32;12.80;99.90
16064;DHT22;8136;53.172;8.256;2023-03-30T19:31:59;12.80;99.90
16064;DHT22;8136;53.172;8.256;2023-03-30T19:34:27;12.80;99.90
16064;DHT22;8136;53.172;8.256;2023-03-30T19:36:54;12.70;99.90
16064;DHT22;8136;53.172;8.256;2023-03-30T19:39:20;12.80;99.90
16064;DHT22;8136;53.172;8.256;2023-03-30T19:41:47;12.80;99.90
16064;DHT22;8136;53.172;8.256;2023-03-30T19:44:14;12.80;99.90
16064;DHT22;8136;53.172;8.256;2023-03-30T19:46:41;12.80;99.90
16064;DHT22;8136;53.172;8.256;2023-03-30T19:49:07;12.80;99.90
16064;DHT22;8136;53.172;8.256;2023-03-30T19:51:35;12.80;99.90
16064;DHT22;8136;53.172;8.256;2023-03-30T19:54:02;12.80;99.90
16064;DHT22;8136;53.172;8.256;2023-03-30T19:56:29;12.80;99.90
16064;DHT22;8136;53.172;8.256;2023-03-30T19:58:56;12.80;99.90
16064;DHT22;8136;53.172;8.256;2023-03-30T20:01:23;12.80;99.90
16064;DHT22;8136;53.172;8.256;2023-03-30T20:03:50;12.70;99.90
16064;DHT22;8136;53.172;8.256;2023-03-30T20:06:16;12.70;99.90
16064;DHT22;8136;53.172;8.256;2023-03-30T20:08:44;12.70;99.90
16064;DHT22;8136;53.172;8.256;2023-03-30T20:11:11;12.80;99.90
16064;DHT22;8136;53.172;8.256;2023-03-30T20:13:38;12.80;99.90
16064;DHT22;8136;53.172;8.256;2023-03-30T20:16:10;12.80;99.90
16064;DHT22;8136;53.172;8.256;2023-03-30T20:18:38;12.80;99.90
16064;DHT22;8136;53.172;8.256;2023-03-30T20:21:05;12.80;99.90
16064;DHT22;8136;53.172;8.256;2023-03-30T20:23:32;12.80;99.90
16064;DHT22;8136;53.172;8.256;2023-03-30T20:26:00;12.80;99.90
16064;DHT22;8136;53.172;8.256;2023-03-30T20:28:29;12.90;99.90
16064;DHT22;8136;53.172;8.256;2023-03-30T20:30:56;12.90;99.90
16064;DHT22;8136;53.172;8.256;2023-03-30T20:33:23;12.90;99.90
16064;DHT22;8136;53.172;8.256;2023-03-30T20:35:51;12.90;99.90
16064;DHT22;8136;53.172;8.256;2023-03-30T20:38:18;12.90;99.90
16064;DHT22;8136;53.172;8.256;2023-03-30T20:40:53;12.90;99.90
16064;DHT22;8136;53.172;8.256;2023-03-30T20:43:22;12.90;99.90
16064;DHT22;8136;53.172;8.256;2023-03-30T20:45:50;13.00;99.90
16064;DHT22;8136;53.172;8.256;2023-03-30T20:48:26;13.00;99.90
16064;DHT22;8136;53.172;8.256;2023-03-30T20:50:58;13.00;99.90
16064;DHT22;8136;53.172;8.256;2023-03-30T20:53:26;13.00;99.90
16064;DHT22;8136;53.172;8.256;2023-03-30T20:55:53;13.00;99.90
16064;DHT22;8136;53.172;8.256;2023-03-30T20:58:21;13.00;99.90
16064;DHT22;8136;53.172;8.256;2023-03-30T21:00:49;13.00;99.90
16064;DHT22;8136;53.172;8.256;2023-03-30T21:03:16;13.10;99.90
16064;DHT22;8136;53.172;8.256;2023-03-30T21:05:43;13.00;99.90
16064;DHT22;8136;53.172;8.256;2023-03-30T21:08:10;13.00;99.90
16064;DHT22;8136;53.172;8.256;2023-03-30T21:10:39;13.00;99.90
16064;DHT22;8136;53.172;8.256;2023-03-30T21:13:06;13.00;99.90
16064;DHT22;8136;53.172;8.256;2023-03-30T21:15:34;13.00;99.90
16064;DHT22;8136;53.172;8.256;2023-03-30T21:18:01;13.00;99.90
16064;DHT22;8136;53.172;8.256;2023-03-30T21:20:28;13.00;99.90
16064;DHT22;8136;53.172;8.256;2023-03-30T21:22:55;13.00;99.90
16064;DHT22;8136;53.172;8.256;2023-03-30T21:25:22;13.00;99.90
16064;DHT22;8136;53.172;8.256;2023-03-30T21:27:48;12.80;99.90
16064;DHT22;8136;53.172;8.256;2023-03-30T21:30:15;12.90;99.90
16064;DHT22;8136;53.172;8.256;2023-03-30T21:32:43;12.90;99.90
16064;DHT22;8136;53.172;8.256;2023-03-30T21:35:10;12.90;99.90
16064;DHT22;8136;53.172;8.256;2023-03-30T21:37:37;12.90;99.90
16064;DHT22;8136;53.172;8.256;2023-03-30T21:40:05;12.90;99.90
16064;DHT22;8136;53.172;8.256;2023-03-30T21:42:33;12.90;99.90
16064;DHT22;8136;53.172;8.256;2023-03-30T21:44:59;12.80;99.90
16064;DHT22;8136;53.172;8.256;2023-03-30T21:47:26;12.80;99.90
16064;DHT22;8136;53.172;8.256;2023-03-30T21:49:54;12.70;99.90
16064;DHT22;8136;53.172;8.256;2023-03-30T21:52:21;12.70;99.90
16064;DHT22;8136;53.172;8.256;2023-03-30T21:54:48;12.60;99.90
16064;DHT22;8136;53.172;8.256;2023-03-30T21:59:52;12.60;99.90
16064;DHT22;8136;53.172;8.256;2023-03-30T22:02:18;12.50;99.90
16064;DHT22;8136;53.172;8.256;2023-03-30T22:04:47;12.50;99.90
16064;DHT22;8136;53.172;8.256;2023-03-30T22:07:15;12.50;99.90
16064;DHT22;8136;53.172;8.256;2023-03-30T22:09:42;12.50;99.90
16064;DHT22;8136;53.172;8.256;2023-03-30T22:12:09;12.40;99.90
16064;DHT22;8136;53.172;8.256;2023-03-30T22:14:36;12.40;99.90
16064;DHT22;8136;53.172;8.256;2023-03-30T22:17:03;12.40;99.90
16064;DHT22;8136;53.172;8.256;2023-03-30T22:19:29;12.50;99.90
16064;DHT22;8136;53.172;8.256;2023-03-30T22:21:58;12.40;99.90
16064;DHT22;8136;53.172;8.256;2023-03-30T22:24:27;12.40;99.90
16064;DHT22;8136;53.172;8.256;2023-03-30T22:26:54;12.40;99.90
16064;DHT22;8136;53.172;8.256;2023-03-30T22:29:23;12.40;99.90
16064;DHT22;8136;53.172;8.256;2023-03-30T22:31:50;12.40;99.90
16064;DHT22;8136;53.172;8.256;2023-03-30T22:34:20;12.40;99.90
16064;DHT22;8136;53.172;8.256;2023-03-30T22:36:48;12.40;99.90
16064;DHT22;8136;53.172;8.256;2023-03-30T22:39:15;12.40;99.90
16064;DHT22;8136;53.172;8.256;2023-03-30T22:41:44;12.30;99.90
16064;DHT22;8136;53.172;8.256;2023-03-30T22:44:11;12.40;99.90
16064;DHT22;8136;53.172;8.256;2023-03-30T22:46:40;12.30;99.90
16064;DHT22;8136;53.172;8.256;2023-03-30T22:49:07;12.30;99.90
16064;DHT22;8136;53.172;8.256;2023-03-30T22:51:34;12.30;99.90
16064;DHT22;8136;53.172;8.256;2023-03-30T22:54:02;12.30;99.90
16064;DHT22;8136;53.172;8.256;2023-03-30T22:56:30;12.30;99.90
16064;DHT22;8136;53.172;8.256;2023-03-30T22:58:59;12.30;99.90
16064;DHT22;8136;53.172;8.256;2023-03-30T23:01:25;12.30;99.90
16064;DHT22;8136;53.172;8.256;2023-03-30T23:03:56;12.30;99.90
16064;DHT22;8136;53.172;8.256;2023-03-30T23:06:24;12.20;99.90
16064;DHT22;8136;53.172;8.256;2023-03-30T23:08:50;12.30;99.90
16064;DHT22;8136;53.172;8.256;2023-03-30T23:11:19;12.30;99.90
16064;DHT22;8136;53.172;8.256;2023-03-30T23:13:46;12.30;99.90
16064;DHT22;8136;53.172;8.256;2023-03-30T23:16:15;12.30;99.90
16064;DHT22;8136;53.172;8.256;2023-03-30T23:18:41;12.30;99.90
16064;DHT22;8136;53.172;8.256;2023-03-30T23:21:08;12.30;99.90
16064;DHT22;8136;53.172;8.256;2023-03-30T23:23:36;12.30;99.90
16064;DHT22;8136;53.172;8.256;2023-03-30T23:26:03;12.30;99.90
16064;DHT22;8136;53.172;8.256;2023-03-30T23:28:32;12.30;99.90
16064;DHT22;8136;53.172;8.256;2023-03-30T23:31:05;12.30;99.90
16064;DHT22;8136;53.172;8.256;2023-03-30T23:33:33;12.30;99.90
16064;DHT22;8136;53.172;8.256;2023-03-30T23:36:00;12.30;99.90
16064;DHT22;8136;53.172;8.256;2023-03-30T23:38:27;12.30;99.90
16064;DHT22;8136;53.172;8.256;2023-03-30T23:40:55;12.30;99.90
16064;DHT22;8136;53.172;8.256;2023-03-30T23:43:22;12.30;99.90
16064;DHT22;8136;53.172;8.256;2023-03-30T23:45:48;12.30;99.90
16064;DHT22;8136;53.172;8.256;2023-03-30T23:48:15;12.40;99.90
16064;DHT22;8136;53.172;8.256;2023-03-30T23:50:45;12.40;99.90
16064;DHT22;8136;53.172;8.256;2023-03-30T23:53:12;12.40;99.90
16064;DHT22;8136;53.172;8.256;2023-03-30T23:55:38;12.40;99.90
16064;DHT22;8136;53.172;8.256;2023-03-30T23:58:06;12.40;99.90
